Terminal Aerodrome Forecast
Issued by NWS

Home | Current Version | Previous Version | Text Only | Print | Product List | Glossary On
Versions: 1 2 3 4 5 6 7 8 9 10 11 12 13 14 15 16 17 18 19
000
FTUS41 KBGM 220500
TAFRME
TAF
KRME 220526Z 2206/2306 27007KT P6SM SCT025 BKN045
      TEMPO 2206/2208 BKN025
     FM220800 29010KT P6SM OVC025
      TEMPO 2208/2212 5SM -SHRA BR SCT009 OVC015
     FM221500 29012G20KT P6SM SCT015 OVC025
     FM222100 29012KT P6SM BKN035=

USA.gov is the U.S. government's official web portal to all federal, state and local government web resources and services.